createdAt,value
2019-01-16T00:00:17.428Z,995
2019-01-16T00:01:27.462Z,994.88
2019-01-16T00:02:37.533Z,994.97
2019-01-16T00:03:47.613Z,994.93
2019-01-16T00:04:57.669Z,995.06
2019-01-16T00:06:07.783Z,994.87
2019-01-16T00:07:17.889Z,994.86
2019-01-16T00:08:28.085Z,994.85
2019-01-16T00:09:38.170Z,994.82
2019-01-16T00:10:48.247Z,994.8
2019-01-16T00:11:58.322Z,994.86
2019-01-16T00:13:10.977Z,994.84
2019-01-16T00:14:20.626Z,994.74
2019-01-16T00:15:30.770Z,994.81
2019-01-16T00:16:40.828Z,995
2019-01-16T00:17:50.649Z,994.77
2019-01-16T00:19:02.939Z,994.84
2019-01-16T00:20:13.263Z,994.84
2019-01-16T00:21:23.363Z,994.85
2019-01-16T00:22:33.361Z,994.81
2019-01-16T00:23:43.490Z,994.84
2019-01-16T00:24:53.595Z,994.92
2019-01-16T00:26:04.151Z,994.86
2019-01-16T00:27:14.197Z,994.84
2019-01-16T00:28:23.773Z,994.74
2019-01-16T00:29:33.840Z,994.82
2019-01-16T00:30:43.929Z,994.76
2019-01-16T00:31:53.792Z,994.82
2019-01-16T00:33:05.788Z,994.83
2019-01-16T00:34:15.867Z,994.83
2019-01-16T00:35:25.696Z,994.79
2019-01-16T00:36:35.517Z,994.94
2019-01-16T00:37:45.377Z,995.04
2019-01-16T00:38:55.436Z,994.96
2019-01-16T00:40:05.222Z,994.95
2019-01-16T00:41:15.284Z,994.92
2019-01-16T00:42:25.335Z,994.92
2019-01-16T00:43:35.443Z,994.97
2019-01-16T00:44:45.573Z,995.03
2019-01-16T00:45:55.630Z,994.99
2019-01-16T00:47:05.695Z,995.01
2019-01-16T00:48:15.754Z,994.99
2019-01-16T00:49:32.334Z,994.97
2019-01-16T00:50:42.497Z,995.03
2019-01-16T00:51:52.568Z,994.96
2019-01-16T00:53:02.390Z,995.06
2019-01-16T00:54:12.488Z,995.13
2019-01-16T00:55:22.315Z,994.92
2019-01-16T00:56:32.396Z,995.13
2019-01-16T00:57:42.911Z,995.1
2019-01-16T00:58:53.027Z,995.11
2019-01-16T01:00:07.207Z,995.04
2019-01-16T01:01:18.116Z,995.02
2019-01-16T01:02:28.248Z,994.93
2019-01-16T01:03:38.336Z,994.98
2019-01-16T01:04:48.405Z,995.04
2019-01-16T01:05:58.529Z,995.14
2019-01-16T01:07:10.527Z,995
2019-01-16T01:08:20.620Z,995.1
2019-01-16T01:09:30.971Z,994.98
2019-01-16T01:10:40.526Z,994.93
2019-01-16T01:11:50.607Z,994.9
2019-01-16T01:13:01.059Z,995.26
2019-01-16T01:14:11.236Z,994.89
2019-01-16T01:15:21.567Z,995.09
2019-01-16T01:16:31.113Z,994.94
2019-01-16T01:17:41.174Z,994.94
2019-01-16T01:18:51.233Z,995.08
2019-01-16T01:20:01.748Z,995.11
2019-01-16T01:21:11.558Z,995.11
2019-01-16T01:22:21.372Z,994.9
2019-01-16T01:23:31.433Z,995.3
2019-01-16T01:24:41.584Z,995.21
2019-01-16T01:25:51.415Z,995.18
2019-01-16T01:27:01.538Z,995.06
2019-01-16T01:28:11.604Z,995.04
2019-01-16T01:29:21.685Z,995.17
2019-01-16T01:30:31.867Z,995.2
2019-01-16T01:31:42.610Z,995.18
2019-01-16T01:32:52.420Z,995.01
2019-01-16T01:34:02.226Z,994.98
2019-01-16T01:35:12.058Z,995.01
2019-01-16T01:36:22.179Z,995.09
2019-01-16T01:37:32.260Z,994.96
2019-01-16T01:38:42.319Z,995.05
2019-01-16T01:39:52.115Z,994.85
2019-01-16T01:41:02.213Z,994.86
2019-01-16T01:42:12.361Z,995
2019-01-16T01:43:22.425Z,994.97
2019-01-16T01:44:32.552Z,994.72
2019-01-16T01:45:42.620Z,995.03
2019-01-16T01:46:52.704Z,995.13
2019-01-16T01:48:03.550Z,994.92
2019-01-16T01:49:13.385Z,994.68
2019-01-16T01:50:23.177Z,994.94
2019-01-16T01:51:33.478Z,994.92
2019-01-16T01:52:43.536Z,995.03
2019-01-16T01:53:53.614Z,994.82
2019-01-16T01:55:03.669Z,994.92
2019-01-16T01:56:13.767Z,994.94
2019-01-16T01:57:23.861Z,994.83
2019-01-16T01:58:33.959Z,994.96
2019-01-16T01:59:44.319Z,994.87
2019-01-16T02:00:54.393Z,994.95
2019-01-16T02:02:04.456Z,995.01
2019-01-16T02:03:14.548Z,995
2019-01-16T02:04:24.094Z,994.84
2019-01-16T02:05:34.158Z,994.81
2019-01-16T02:06:43.974Z,994.95
2019-01-16T02:07:54.748Z,994.91
2019-01-16T02:09:04.884Z,994.96
2019-01-16T02:10:14.961Z,994.62
2019-01-16T02:11:24.763Z,994.89
2019-01-16T02:12:34.838Z,994.73
2019-01-16T02:13:44.894Z,994.69
2019-01-16T02:14:55.210Z,994.8
2019-01-16T02:16:05.346Z,994.73
2019-01-16T02:17:15.423Z,994.7
2019-01-16T02:18:25.483Z,994.7
2019-01-16T02:19:35.289Z,994.82
2019-01-16T02:20:45.334Z,994.64
2019-01-16T02:21:55.415Z,994.64
2019-01-16T02:23:05.669Z,994.52
2019-01-16T02:24:16.012Z,994.76
2019-01-16T02:25:26.088Z,994.5
2019-01-16T02:26:35.901Z,994.6
2019-01-16T02:27:45.956Z,994.44
2019-01-16T02:28:57.362Z,994.55
2019-01-16T02:30:08.478Z,994.67
2019-01-16T02:31:18.555Z,994.58
2019-01-16T02:32:28.375Z,994.65
2019-01-16T02:33:38.705Z,994.58
2019-01-16T02:34:48.770Z,994.56
2019-01-16T02:35:58.593Z,994.57
2019-01-16T02:37:08.705Z,994.52
2019-01-16T02:38:18.275Z,994.6
2019-01-16T02:39:28.180Z,994.57
2019-01-16T02:40:38.050Z,994.43
2019-01-16T02:41:48.346Z,994.67
2019-01-16T02:42:58.184Z,994.48
2019-01-16T02:44:08.309Z,994.59
2019-01-16T02:45:18.368Z,994.56
2019-01-16T02:46:28.431Z,994.58
2019-01-16T02:47:37.981Z,994.63
2019-01-16T02:48:55.619Z,994.67
2019-01-16T02:50:05.900Z,994.71
2019-01-16T02:51:15.984Z,994.54
2019-01-16T02:52:25.829Z,994.51
2019-01-16T02:53:36.005Z,994.57
2019-01-16T02:54:46.074Z,994.5
2019-01-16T02:55:57.514Z,994.69
2019-01-16T02:57:07.850Z,994.71
2019-01-16T02:58:17.801Z,994.65
2019-01-16T02:59:27.941Z,994.68
2019-01-16T03:00:38.009Z,994.52
2019-01-16T03:01:48.094Z,994.67
2019-01-16T03:02:57.894Z,994.65
2019-01-16T03:34:40.281Z,994.99
2019-01-16T03:35:50.348Z,994.94
2019-01-16T03:37:00.405Z,995
2019-01-16T03:38:10.464Z,994.9
2019-01-16T03:39:20.021Z,994.82
2019-01-16T03:40:29.834Z,994.83
2019-01-16T03:41:39.892Z,994.86
2019-01-16T03:42:49.461Z,994.86
2019-01-16T03:43:59.265Z,994.81
2019-01-16T03:45:09.324Z,994.91
2019-01-16T03:46:19.200Z,994.8
2019-01-16T03:47:29.006Z,994.89
2019-01-16T03:48:38.817Z,994.81
2019-01-16T03:49:48.895Z,994.87
2019-01-16T03:50:58.986Z,994.77
2019-01-16T03:52:09.007Z,994.76
2019-01-16T03:53:19.061Z,994.78
2019-01-16T03:54:29.139Z,994.81
2019-01-16T03:55:39.288Z,994.78
2019-01-16T03:56:49.581Z,994.95
2019-01-16T03:57:59.780Z,994.86
2019-01-16T03:59:09.859Z,994.89
2019-01-16T04:00:19.756Z,994.79
2019-01-16T04:01:29.978Z,994.71
2019-01-16T04:02:40.041Z,994.83
2019-01-16T04:03:50.197Z,994.77
2019-01-16T04:05:01.822Z,994.88
2019-01-16T04:06:11.634Z,994.94
2019-01-16T04:07:22.426Z,994.86
2019-01-16T04:08:32.352Z,994.97
2019-01-16T04:09:42.439Z,994.91
2019-01-16T04:10:52.553Z,994.99
2019-01-16T04:12:02.630Z,994.82
2019-01-16T04:13:12.752Z,994.86
2019-01-16T04:14:22.837Z,995.05
2019-01-16T04:15:32.428Z,994.9
2019-01-16T04:16:42.487Z,994.59
2019-01-16T04:17:52.300Z,994.91
2019-01-16T04:19:02.135Z,994.96
2019-01-16T04:20:12.203Z,994.82
2019-01-16T04:21:22.340Z,994.93
2019-01-16T04:22:32.142Z,994.92
2019-01-16T04:23:42.202Z,994.75
2019-01-16T04:24:52.041Z,994.79
2019-01-16T04:26:02.049Z,994.9
2019-01-16T04:27:12.123Z,994.92
2019-01-16T04:28:22.203Z,994.58
2019-01-16T04:29:32.262Z,994.83
2019-01-16T04:30:42.374Z,994.9
2019-01-16T04:31:52.449Z,994.83
2019-01-16T04:33:02.380Z,994.8
2019-01-16T04:34:12.464Z,994.77
2019-01-16T04:35:22.530Z,994.72
2019-01-16T04:36:32.612Z,994.92
2019-01-16T04:37:42.666Z,994.63
2019-01-16T04:38:52.998Z,994.91
2019-01-16T04:40:03.182Z,994.84
2019-01-16T04:41:13.286Z,994.79
2019-01-16T04:42:23.094Z,994.94
2019-01-16T04:43:33.153Z,994.87
2019-01-16T04:44:43.228Z,994.82
2019-01-16T04:45:53.033Z,994.92
2019-01-16T04:47:02.951Z,994.96
2019-01-16T04:48:13.022Z,994.97
2019-01-16T04:49:30.095Z,995.15
2019-01-16T04:50:40.350Z,995.02
2019-01-16T04:51:50.425Z,994.9
2019-01-16T04:53:00.479Z,994.97
2019-01-16T04:54:10.310Z,994.93
2019-01-16T04:55:20.128Z,995.05
2019-01-16T04:56:30.239Z,995.01
2019-01-16T04:57:40.306Z,995.01
2019-01-16T04:58:50.390Z,995.17
2019-01-16T05:00:00.497Z,995.12
2019-01-16T05:01:10.988Z,995.03
2019-01-16T05:02:21.073Z,995.14
2019-01-16T05:03:31.409Z,995.05
2019-01-16T05:04:41.476Z,995.29
2019-01-16T05:05:51.525Z,995.21
2019-01-16T05:07:03.294Z,995.16
2019-01-16T05:08:13.424Z,995.16
2019-01-16T05:09:23.470Z,995.17
2019-01-16T05:10:33.525Z,995.17
2019-01-16T05:11:43.339Z,995.07
2019-01-16T05:12:53.160Z,995.27
2019-01-16T05:14:03.302Z,995.2
2019-01-16T05:15:13.494Z,995.25
2019-01-16T05:16:23.676Z,995.21
2019-01-16T05:17:33.713Z,995.19
2019-01-16T05:18:43.810Z,995.18
2019-01-16T05:19:53.945Z,995.27
2019-01-16T05:21:04.568Z,995.22
2019-01-16T05:22:14.633Z,995.23
2019-01-16T05:23:24.729Z,995.26
2019-01-16T05:24:34.782Z,995.31
2019-01-16T05:25:44.843Z,995.34
2019-01-16T05:26:54.667Z,995.37
2019-01-16T05:28:05.918Z,995.38
2019-01-16T05:29:16.011Z,995.34
2019-01-16T05:30:26.137Z,995.42
2019-01-16T05:31:35.951Z,995.39
2019-01-16T05:32:46.017Z,995.4
2019-01-16T05:33:56.554Z,995.39
2019-01-16T05:35:06.356Z,995.37
2019-01-16T05:36:16.598Z,995.48
2019-01-16T05:37:28.128Z,995.48
2019-01-16T05:38:38.580Z,995.44
2019-01-16T05:39:48.670Z,995.44
2019-01-16T05:40:58.727Z,995.48
2019-01-16T05:42:08.960Z,995.43
2019-01-16T05:43:19.055Z,995.39
2019-01-16T05:44:28.874Z,995.36
2019-01-16T05:45:38.995Z,995.39
2019-01-16T05:46:49.063Z,995.39
2019-01-16T05:47:59.138Z,995.54
2019-01-16T05:49:09.222Z,995.62
2019-01-16T05:50:19.294Z,995.45
2019-01-16T05:51:29.365Z,995.6
2019-01-16T05:52:39.431Z,995.46
2019-01-16T05:53:48.456Z,995.57
2019-01-16T05:54:58.282Z,995.65
2019-01-16T05:56:08.341Z,995.49
2019-01-16T05:57:18.187Z,995.63
2019-01-16T05:58:28.230Z,995.52
2019-01-16T05:59:38.287Z,995.57
2019-01-16T06:00:48.344Z,995.59
2019-01-16T06:01:58.158Z,995.68
2019-01-16T06:03:08.308Z,995.59
2019-01-16T06:04:18.403Z,995.64
2019-01-16T06:05:28.249Z,995.67
2019-01-16T06:06:38.328Z,995.74
2019-01-16T06:07:48.395Z,995.95
2019-01-16T06:08:58.522Z,995.76
2019-01-16T06:10:11.012Z,995.74
2019-01-16T06:11:21.124Z,995.72
2019-01-16T06:12:31.209Z,995.73
2019-01-16T06:13:41.263Z,995.66
2019-01-16T06:14:51.367Z,995.92
2019-01-16T06:16:01.877Z,995.91
2019-01-16T06:17:11.689Z,995.8
2019-01-16T06:18:21.896Z,995.76
2019-01-16T06:19:31.940Z,995.84
2019-01-16T06:20:41.983Z,995.76
2019-01-16T06:21:52.059Z,995.91
2019-01-16T06:23:02.118Z,995.8
2019-01-16T06:24:12.197Z,995.87
2019-01-16T06:25:22.024Z,995.93
2019-01-16T06:26:31.583Z,996.01
2019-01-16T06:27:41.689Z,995.99
2019-01-16T06:28:51.765Z,996.03
2019-01-16T06:30:01.809Z,995.88
2019-01-16T06:31:11.645Z,995.98
2019-01-16T06:32:21.739Z,996.03
2019-01-16T06:33:31.546Z,996.1
2019-01-16T06:34:41.626Z,996.08
2019-01-16T06:35:51.700Z,996.09
2019-01-16T06:37:01.571Z,996.21
2019-01-16T06:38:11.422Z,996.18
2019-01-16T06:39:21.502Z,996.07
2019-01-16T06:40:31.365Z,996.32
2019-01-16T06:41:41.514Z,996.31
2019-01-16T06:42:51.597Z,996.26
2019-01-16T06:44:01.702Z,996.33
2019-01-16T06:45:11.759Z,996.2
2019-01-16T06:46:21.883Z,996.18
2019-01-16T06:47:31.681Z,996.14
2019-01-16T06:48:41.715Z,996.32
2019-01-16T06:49:51.859Z,996.3
2019-01-16T06:51:16.974Z,996.24
2019-01-16T06:52:27.067Z,996.26
2019-01-16T06:53:36.933Z,996.28
2019-01-16T06:54:46.998Z,996.23
2019-01-16T06:55:57.060Z,996.32
2019-01-16T06:57:06.863Z,996.3
2019-01-16T06:58:16.677Z,996.46
2019-01-16T06:59:26.748Z,996.31
2019-01-16T07:00:36.585Z,996.45
2019-01-16T07:01:46.406Z,996.35
2019-01-16T07:02:56.649Z,996.33
2019-01-16T07:04:06.766Z,996.48
2019-01-16T07:05:16.813Z,996.47
2019-01-16T07:06:26.707Z,996.42
2019-01-16T07:07:36.800Z,996.5
2019-01-16T07:08:46.864Z,996.49
2019-01-16T07:09:56.952Z,996.42
2019-01-16T07:11:07.034Z,996.57
2019-01-16T07:12:16.879Z,996.45
2019-01-16T07:13:26.958Z,996.62
2019-01-16T07:14:36.776Z,996.58
2019-01-16T07:15:46.867Z,996.56
2019-01-16T07:16:56.982Z,996.59
2019-01-16T07:18:07.125Z,996.62
2019-01-16T07:19:17.314Z,996.58
2019-01-16T07:20:27.113Z,996.54
2019-01-16T07:21:36.916Z,996.7
2019-01-16T07:22:47.174Z,996.74
2019-01-16T07:23:57.309Z,996.79
2019-01-16T07:25:08.161Z,996.79
2019-01-16T07:26:18.217Z,996.81
2019-01-16T07:27:28.292Z,996.77
2019-01-16T07:28:38.115Z,996.89
2019-01-16T07:29:48.222Z,996.82
2019-01-16T07:30:58.285Z,996.85
2019-01-16T07:32:10.899Z,996.84
2019-01-16T07:33:20.991Z,997.02
2019-01-16T07:34:30.814Z,996.89
2019-01-16T07:35:40.611Z,997.01
2019-01-16T07:36:50.688Z,996.92
2019-01-16T07:38:03.153Z,997.04
2019-01-16T07:39:13.194Z,997
2019-01-16T07:40:23.256Z,997.04
2019-01-16T07:41:33.321Z,997.15
2019-01-16T07:42:46.877Z,997.06
2019-01-16T07:43:57.229Z,997.08
2019-01-16T07:45:07.033Z,997.06
2019-01-16T07:46:16.843Z,997.08
2019-01-16T07:47:26.910Z,997.04
2019-01-16T07:48:36.730Z,997.05
2019-01-16T07:49:46.538Z,997.03
2019-01-16T07:50:56.592Z,997.05
2019-01-16T07:52:06.403Z,997.14
2019-01-16T07:53:16.469Z,997.06
2019-01-16T07:54:26.748Z,997.18
2019-01-16T07:55:36.833Z,997.06
2019-01-16T07:56:46.706Z,997.17
2019-01-16T07:57:56.771Z,997.28
2019-01-16T07:59:06.815Z,997.08
2019-01-16T08:00:24.625Z,997.01
2019-01-16T08:01:34.706Z,997.01
2019-01-16T08:02:44.814Z,997.1
2019-01-16T08:03:54.868Z,997.08
2019-01-16T08:05:04.947Z,997.1
2019-01-16T08:06:14.789Z,997.08
2019-01-16T08:07:24.759Z,997.14
2019-01-16T08:08:34.621Z,997.12
2019-01-16T08:09:44.442Z,997.13
2019-01-16T08:10:54.511Z,997.12
2019-01-16T08:12:04.580Z,997.16
2019-01-16T08:13:14.659Z,997.14
2019-01-16T08:14:24.740Z,997.17
2019-01-16T08:15:34.806Z,997.12
2019-01-16T08:16:44.701Z,997.22
2019-01-16T08:17:54.766Z,997.06
2019-01-16T08:19:06.283Z,997.2
2019-01-16T08:20:16.361Z,997.12
2019-01-16T08:21:32.739Z,997.09
2019-01-16T08:22:42.799Z,997.05
2019-01-16T08:23:52.888Z,997.05
2019-01-16T08:25:03.206Z,997.12
2019-01-16T08:26:26.069Z,997.04
2019-01-16T08:27:36.266Z,997.05
2019-01-16T08:28:46.330Z,997.08
2019-01-16T08:29:56.672Z,996.99
2019-01-16T08:31:07.277Z,997.09
2019-01-16T08:32:17.337Z,997.07
2019-01-16T08:33:27.398Z,997.07
2019-01-16T08:34:37.485Z,997.28
2019-01-16T08:35:47.582Z,997.27
2019-01-16T08:36:57.457Z,997.09
2019-01-16T08:38:07.024Z,997.18
2019-01-16T08:39:18.050Z,997.06
2019-01-16T08:40:27.926Z,997.07
2019-01-16T08:41:37.791Z,997.03
2019-01-16T08:42:47.903Z,997.06
2019-01-16T08:43:58.060Z,997.16
2019-01-16T08:45:16.720Z,997.1
2019-01-16T08:46:26.796Z,997.42
2019-01-16T08:47:36.859Z,997.06
2019-01-16T08:48:46.937Z,997.01
2019-01-16T08:49:56.992Z,996.91
2019-01-16T08:51:08.521Z,996.96
2019-01-16T08:52:18.584Z,996.86
2019-01-16T08:53:28.397Z,996.79
2019-01-16T08:54:38.363Z,996.77
2019-01-16T08:55:47.653Z,996.77
2019-01-16T08:56:57.719Z,996.82
2019-01-16T08:58:08.252Z,996.75
2019-01-16T08:59:18.329Z,996.86
2019-01-16T09:00:28.179Z,996.81
2019-01-16T09:01:38.263Z,996.86
2019-01-16T09:02:48.344Z,996.76
2019-01-16T09:03:58.414Z,996.8
2019-01-16T09:05:08.339Z,996.79
2019-01-16T09:06:17.907Z,996.77
2019-01-16T09:07:27.973Z,997.02
2019-01-16T09:08:38.030Z,996.82
2019-01-16T09:09:47.848Z,996.83
2019-01-16T09:10:57.717Z,996.96
2019-01-16T09:12:07.531Z,996.95
2019-01-16T09:13:17.660Z,996.85
2019-01-16T09:14:27.487Z,996.96
2019-01-16T09:15:37.281Z,996.91
2019-01-16T09:16:46.922Z,996.91
2019-01-16T09:17:56.997Z,996.93
2019-01-16T09:19:08.017Z,997.08
2019-01-16T09:20:17.812Z,996.84
2019-01-16T09:21:27.877Z,996.87
2019-01-16T09:22:38.035Z,996.87
2019-01-16T09:23:48.117Z,996.94
2019-01-16T09:24:58.171Z,996.96
2019-01-16T09:26:09.332Z,997
2019-01-16T09:27:19.400Z,997
2019-01-16T09:28:29.530Z,997.04
2019-01-16T09:29:39.595Z,997.01
2019-01-16T09:30:49.674Z,996.9
2019-01-16T09:31:59.512Z,997.01
2019-01-16T09:33:11.076Z,997.02
2019-01-16T09:34:21.243Z,996.97
2019-01-16T09:35:31.045Z,996.92
2019-01-16T09:36:41.129Z,997.01
2019-01-16T09:37:51.206Z,996.87
2019-01-16T09:39:01.058Z,996.86
2019-01-16T09:40:11.199Z,997.05
2019-01-16T09:41:21.543Z,996.89
2019-01-16T09:42:31.627Z,996.89
2019-01-16T09:43:41.436Z,996.85
2019-01-16T09:44:51.694Z,996.94
2019-01-16T09:46:01.551Z,996.81
2019-01-16T09:47:11.368Z,996.88
2019-01-16T09:48:21.174Z,996.84
2019-01-16T09:49:31.433Z,996.86
2019-01-16T09:50:47.761Z,996.82
2019-01-16T09:51:57.755Z,996.77
2019-01-16T09:53:07.844Z,996.87
2019-01-16T09:54:17.952Z,996.77
2019-01-16T09:55:27.802Z,996.69
2019-01-16T09:56:37.904Z,996.66
2019-01-16T09:57:48.038Z,996.72
2019-01-16T09:58:57.351Z,996.66
2019-01-16T10:00:07.637Z,996.63
2019-01-16T10:01:18.362Z,996.57
2019-01-16T10:02:28.737Z,996.6
2019-01-16T10:03:38.828Z,996.57
2019-01-16T10:04:48.910Z,996.41
2019-01-16T10:06:02.219Z,996.46
2019-01-16T10:07:12.304Z,996.39
2019-01-16T10:08:22.142Z,996.42
2019-01-16T10:09:31.985Z,996.39
2019-01-16T10:10:42.098Z,996.41
2019-01-16T10:11:52.189Z,996.41
2019-01-16T10:13:02.269Z,996.35
2019-01-16T10:14:12.095Z,996.36
2019-01-16T10:15:22.187Z,996.32
2019-01-16T10:16:32.018Z,996.35
2019-01-16T10:17:42.115Z,996.36
2019-01-16T10:18:51.995Z,996.37
2019-01-16T10:20:02.062Z,996.39
2019-01-16T10:21:12.144Z,996.39
2019-01-16T10:22:22.241Z,996.33
2019-01-16T10:23:32.377Z,996.36
2019-01-16T10:24:42.459Z,996.35
2019-01-16T10:25:52.525Z,996.4
2019-01-16T10:27:02.580Z,996.46
2019-01-16T10:28:12.137Z,996.4
2019-01-16T10:29:22.201Z,996.49
2019-01-16T10:30:32.030Z,996.53
2019-01-16T10:31:42.116Z,996.45
2019-01-16T10:32:52.261Z,996.42
2019-01-16T10:34:02.059Z,996.45
2019-01-16T10:35:12.136Z,996.43
2019-01-16T10:36:22.220Z,996.43
2019-01-16T10:37:32.307Z,996.43
2019-01-16T10:38:42.402Z,996.48
2019-01-16T10:39:52.216Z,996.42
2019-01-16T10:41:04.154Z,996.37
2019-01-16T10:42:14.262Z,996.34
2019-01-16T10:43:24.339Z,996.32
2019-01-16T10:44:34.412Z,996.31
2019-01-16T10:45:44.480Z,996.3
2019-01-16T10:46:54.534Z,996.3
2019-01-16T10:48:04.674Z,996.28
2019-01-16T10:49:14.765Z,996.31
2019-01-16T10:50:24.614Z,996.32
2019-01-16T10:51:34.670Z,996.3
2019-01-16T10:52:44.734Z,996.29
2019-01-16T10:53:55.074Z,996.21
2019-01-16T10:55:05.457Z,996.27
2019-01-16T10:56:15.537Z,996.27
2019-01-16T10:57:26.901Z,996.26
2019-01-16T10:58:37.097Z,996.19
2019-01-16T10:59:47.165Z,996.24
2019-01-16T11:00:57.240Z,996.31
2019-01-16T11:02:07.329Z,996.2
2019-01-16T11:03:17.432Z,996.24
2019-01-16T11:04:27.239Z,996.21
2019-01-16T11:05:37.506Z,996.24
2019-01-16T11:06:47.379Z,996.21
2019-01-16T11:07:57.357Z,996.15
2019-01-16T11:09:09.190Z,996.17
2019-01-16T11:10:19.152Z,996.12
2019-01-16T11:11:30.514Z,996.14
2019-01-16T11:12:40.607Z,996.1
2019-01-16T11:13:50.726Z,996.12
2019-01-16T11:15:00.817Z,996.1
2019-01-16T11:16:11.110Z,996.06
2019-01-16T11:17:21.503Z,996.09
2019-01-16T11:18:31.317Z,996.04
2019-01-16T11:19:41.846Z,996.06
2019-01-16T11:20:51.921Z,996.03
2019-01-16T11:22:02.009Z,996.06
2019-01-16T11:23:12.088Z,996.08
2019-01-16T11:24:22.175Z,996.05
2019-01-16T11:25:32.294Z,996.05
2019-01-16T11:26:42.363Z,996.04
2019-01-16T11:27:52.534Z,996.02
2019-01-16T11:29:03.901Z,996.05
2019-01-16T11:30:14.015Z,996.01
2019-01-16T11:31:24.577Z,996.03
2019-01-16T11:32:34.404Z,996.05
2019-01-16T11:33:44.228Z,995.98
2019-01-16T11:34:54.288Z,995.96
2019-01-16T11:36:04.353Z,995.88
2019-01-16T11:37:14.428Z,995.83
2019-01-16T11:38:24.500Z,995.83
2019-01-16T11:39:34.605Z,995.82
2019-01-16T11:40:44.734Z,995.83
2019-01-16T11:41:56.181Z,995.83
2019-01-16T11:43:06.647Z,995.74
2019-01-16T11:44:16.701Z,995.75
2019-01-16T11:45:26.761Z,995.74
2019-01-16T11:46:36.808Z,995.73
2019-01-16T11:47:46.892Z,995.79
2019-01-16T11:48:56.762Z,995.7
2019-01-16T11:50:06.982Z,995.77
2019-01-16T11:51:18.810Z,995.77
2019-01-16T11:52:36.478Z,995.73
2019-01-16T11:53:46.563Z,995.69
2019-01-16T11:54:56.680Z,995.72
2019-01-16T11:56:06.762Z,995.68
2019-01-16T11:57:16.926Z,995.72
2019-01-16T11:58:26.993Z,995.69
2019-01-16T11:59:36.800Z,995.67
2019-01-16T12:00:46.606Z,995.64
2019-01-16T12:01:56.663Z,995.68
2019-01-16T12:03:06.729Z,995.67
2019-01-16T12:04:16.559Z,995.61
2019-01-16T12:05:26.683Z,995.57
2019-01-16T12:06:36.521Z,995.55
2019-01-16T12:07:46.620Z,995.53
2019-01-16T12:08:56.689Z,995.51
2019-01-16T12:10:06.782Z,995.52
2019-01-16T12:11:16.901Z,995.56
2019-01-16T12:12:26.834Z,995.54
2019-01-16T12:13:36.887Z,995.56
2019-01-16T12:14:46.959Z,995.59
2019-01-16T12:15:57.016Z,995.62
2019-01-16T12:17:06.609Z,995.58
2019-01-16T12:18:16.683Z,995.58
2019-01-16T12:19:26.742Z,995.6
2019-01-16T12:20:36.548Z,995.57
2019-01-16T12:21:46.623Z,995.58
2019-01-16T12:22:56.712Z,995.55
2019-01-16T12:24:06.790Z,995.54
2019-01-16T12:25:16.899Z,995.53
2019-01-16T12:26:26.945Z,995.49
2019-01-16T12:27:37.030Z,995.51
2019-01-16T12:28:47.278Z,995.53
2019-01-16T12:29:57.346Z,995.54
2019-01-16T12:31:07.450Z,995.56
2019-01-16T12:32:17.759Z,995.57
2019-01-16T12:33:27.838Z,995.53
2019-01-16T12:34:37.901Z,995.53
2019-01-16T12:35:48.026Z,995.56
2019-01-16T12:36:58.137Z,995.54
2019-01-16T12:38:08.330Z,995.55
2019-01-16T12:39:18.427Z,995.53
2019-01-16T12:40:28.478Z,995.52
2019-01-16T12:41:38.292Z,995.5
2019-01-16T12:42:48.117Z,995.56
2019-01-16T12:43:57.942Z,995.59
2019-01-16T12:45:08.047Z,995.54
2019-01-16T12:46:18.229Z,995.52
2019-01-16T12:47:29.015Z,995.49
2019-01-16T12:48:39.092Z,995.55
2019-01-16T12:49:49.167Z,995.55
2019-01-16T12:50:59.382Z,995.57
2019-01-16T12:52:09.477Z,995.57
2019-01-16T12:53:19.532Z,995.55
2019-01-16T12:54:29.601Z,995.5
2019-01-16T12:55:39.681Z,995.46
2019-01-16T12:56:49.754Z,995.47
2019-01-16T12:57:59.615Z,995.45
2019-01-16T12:59:16.397Z,995.53
2019-01-16T13:00:26.226Z,995.56
2019-01-16T13:01:36.544Z,995.52
2019-01-16T13:02:46.626Z,995.58
2019-01-16T13:03:56.698Z,995.6
2019-01-16T13:05:06.764Z,995.58
2019-01-16T13:06:16.873Z,995.62
2019-01-16T13:07:27.753Z,995.57
2019-01-16T13:08:38.747Z,995.58
2019-01-16T13:09:48.923Z,995.56
2019-01-16T13:10:58.996Z,995.51
2019-01-16T13:12:08.905Z,995.49
2019-01-16T13:13:19.213Z,995.49
2019-01-16T13:14:29.979Z,995.57
2019-01-16T13:15:40.556Z,995.55
2019-01-16T13:16:50.668Z,995.61
2019-01-16T13:18:03.458Z,995.5
2019-01-16T13:19:13.550Z,995.53
2019-01-16T13:20:24.175Z,995.51
2019-01-16T13:21:39.815Z,995.49
2019-01-16T13:22:49.941Z,995.49
2019-01-16T13:24:00.053Z,995.5
2019-01-16T13:25:10.769Z,995.48
2019-01-16T13:26:20.614Z,995.51
2019-01-16T13:27:30.621Z,995.47
2019-01-16T13:28:40.465Z,995.46
2019-01-16T13:29:50.294Z,995.42
2019-01-16T13:31:00.722Z,995.43
2019-01-16T13:32:10.840Z,995.41
2019-01-16T13:33:20.993Z,995.4
2019-01-16T13:34:31.292Z,995.46
2019-01-16T13:35:41.561Z,995.52
2019-01-16T13:36:51.685Z,995.35
2019-01-16T13:38:01.762Z,995.42
2019-01-16T13:39:11.709Z,995.44
2019-01-16T13:40:21.622Z,995.41
2019-01-16T13:41:31.722Z,995.39
2019-01-16T13:42:41.777Z,995.42
2019-01-16T13:43:52.434Z,995.4
2019-01-16T13:45:02.623Z,995.38
2019-01-16T13:46:12.695Z,995.38
2019-01-16T13:47:22.809Z,995.38
2019-01-16T13:48:33.001Z,995.4
2019-01-16T13:49:43.141Z,995.39
2019-01-16T13:50:53.279Z,995.42
2019-01-16T13:52:03.367Z,995.38
2019-01-16T13:53:19.304Z,995.39
2019-01-16T13:54:29.398Z,995.43
2019-01-16T13:55:39.494Z,995.41
2019-01-16T13:56:49.761Z,995.41
2019-01-16T13:57:59.823Z,995.35
2019-01-16T13:59:09.889Z,995.38
2019-01-16T14:00:20.118Z,995.42
2019-01-16T14:01:30.334Z,995.4
2019-01-16T14:02:40.519Z,995.41
2019-01-16T14:03:50.655Z,995.39
2019-01-16T14:05:02.229Z,995.36
2019-01-16T14:06:12.039Z,995.29
2019-01-16T14:07:21.852Z,995.28
2019-01-16T14:08:31.760Z,995.25
2019-01-16T14:09:41.570Z,995.21
2019-01-16T14:10:51.491Z,995.21
2019-01-16T14:12:01.628Z,995.25
2019-01-16T14:13:11.719Z,995.19
2019-01-16T14:14:21.805Z,995.24
2019-01-16T14:15:31.860Z,995.25
2019-01-16T14:16:41.925Z,995.26
2019-01-16T14:17:51.738Z,995.31
2019-01-16T14:19:03.604Z,995.27
2019-01-16T14:20:14.012Z,995.24
2019-01-16T14:21:24.106Z,995.27
2019-01-16T14:22:34.212Z,995.26
2019-01-16T14:23:44.277Z,995.22
2019-01-16T14:24:54.088Z,995.21
2019-01-16T14:26:04.012Z,995.17
2019-01-16T14:27:14.087Z,995.21
2019-01-16T14:28:23.926Z,995.18
2019-01-16T14:29:34.052Z,995.17
2019-01-16T14:30:44.436Z,995.19
2019-01-16T14:31:55.057Z,995.17
2019-01-16T14:33:05.749Z,995.22
2019-01-16T14:34:15.970Z,995.19
2019-01-16T14:35:27.092Z,995.21
2019-01-16T14:36:38.139Z,995.16
2019-01-16T14:37:48.601Z,995.14
2019-01-16T14:38:58.854Z,995.13
2019-01-16T14:40:11.096Z,995.16
2019-01-16T14:41:21.290Z,995.11
2019-01-16T14:42:31.676Z,995.08
2019-01-16T14:43:41.870Z,995.1
2019-01-16T14:44:52.063Z,995.11
2019-01-16T14:46:02.313Z,995.06
2019-01-16T14:47:12.341Z,995.03
2019-01-16T14:48:22.701Z,995.05
2019-01-16T14:49:32.964Z,995.01
2019-01-16T14:50:42.845Z,995.01
2019-01-16T14:51:59.447Z,995
2019-01-16T14:53:09.738Z,995
2019-01-16T14:54:19.940Z,995
2019-01-16T14:55:30.150Z,995
2019-01-16T14:56:40.278Z,995
2019-01-16T14:57:50.105Z,995.02
2019-01-16T14:59:03.447Z,994.96
2019-01-16T15:00:13.722Z,994.89
2019-01-16T15:01:24.153Z,994.89
2019-01-16T15:02:34.326Z,994.91
2019-01-16T15:03:44.509Z,994.83
2019-01-16T15:04:54.920Z,994.86
2019-01-16T15:06:05.151Z,994.82
2019-01-16T15:07:15.809Z,994.77
2019-01-16T15:08:26.227Z,994.75
2019-01-16T15:09:36.381Z,994.77
2019-01-16T15:10:46.631Z,994.77